Time;durP1;ratioP1;P1;durP2;ratioP2;P2;SDS_P1;SDS_P2;PMS_P1;PMS_P2;Temp;Humidity;BMP_temperature;BMP_pressure;BME280_temperature;BME280_humidity;BME280_pressure;Samples;Min_cycle;Max_cycle;Signal;HPM_P1;HPM_P2
2023/10/13 00:01:20;;;;;;;12.00;6.68;;;;;;;10.36;71.84;100562.78;5148986;27;20042;-80
2023/10/13 00:03:45;;;;;;;14.25;6.60;;;;;;;10.39;71.75;100571.19;5131104;27;20031;-84
2023/10/13 00:06:11;;;;;;;16.02;6.47;;;;;;;10.09;73.57;100591.25;5130595;27;20408;-80
2023/10/13 00:08:36;;;;;;;16.30;7.30;;;;;;;10.40;71.70;100586.19;5134727;27;20144;-80
2023/10/13 00:11:02;;;;;;;14.88;7.45;;;;;;;10.56;71.56;100584.13;5129563;28;20102;-80
2023/10/13 00:13:31;;;;;;;14.55;7.00;;;;;;;10.56;70.92;100565.47;5132276;27;20368;-80
2023/10/13 00:15:57;;;;;;;16.35;8.85;;;;;;;10.38;72.96;100574.91;5129901;27;20031;-80
2023/10/13 00:18:33;;;;;;;16.42;9.02;;;;;;;10.63;71.94;100572.44;5134656;27;20024;-82
2023/10/13 00:21:00;;;;;;;24.92;9.48;;;;;;;10.59;71.62;100549.06;5129227;28;20038;-80
2023/10/13 00:23:28;;;;;;;16.33;8.63;;;;;;;10.62;71.11;100548.63;5132058;27;20400;-80
2023/10/13 00:25:58;;;;;;;17.80;9.13;;;;;;;10.45;72.06;100557.06;5131659;27;20035;-80
2023/10/13 00:28:35;;;;;;;21.20;9.45;;;;;;;10.67;71.30;100588.84;5138151;27;20447;-79
2023/10/13 00:31:04;;;;;;;18.95;8.95;;;;;;;10.27;72.18;100546.16;5137154;27;20034;-80
2023/10/13 00:33:32;;;;;;;16.50;8.65;;;;;;;10.45;71.84;100557.06;5145598;27;20391;-80
2023/10/13 00:35:58;;;;;;;13.03;8.47;;;;;;;10.39;71.69;100560.53;5146672;27;20127;-81
2023/10/13 00:38:24;;;;;;;17.70;9.20;;;;;;;10.39;71.96;100541.88;5134049;27;20176;-83
2023/10/13 00:40:53;;;;;;;15.27;9.25;;;;;;;10.58;70.98;100544.72;5134754;27;20034;-81
2023/10/13 00:45:57;;;;;;;22.70;10.55;;;;;;;10.33;73.95;100556.03;5148838;27;20030;-80
2023/10/13 00:48:34;;;;;;;17.83;9.55;;;;;;;10.22;74.37;100567.28;5130773;27;20054;-80
2023/10/13 00:51:07;;;;;;;19.95;11.20;;;;;;;10.44;74.48;100568.75;5133257;27;20035;-81
2023/10/13 00:53:41;;;;;;;17.10;11.48;;;;;;;10.51;74.91;100551.94;5133713;27;20020;-80
2023/10/13 00:56:07;;;;;;;16.63;11.05;;;;;;;10.22;74.63;100548.63;5134388;27;20483;-80
2023/10/13 00:58:39;;;;;;;22.23;12.68;;;;;;;9.82;76.65;100522.75;5137526;27;20026;-80
2023/10/13 01:01:17;;;;;;;20.83;11.88;;;;;;;9.31;80.36;100533.06;5134332;27;20030;-80
2023/10/13 01:03:59;;;;;;;21.20;10.80;;;;;;;9.18;79.11;100531.97;5147780;27;20472;-81
2023/10/13 01:06:28;;;;;;;16.33;10.02;;;;;;;9.13;79.31;100554.88;5112117;28;20063;-81
2023/10/13 01:09:11;;;;;;;18.02;9.70;;;;;;;9.52;77.10;100546.25;5137349;27;20054;-81
2023/10/13 01:11:37;;;;;;;24.35;12.32;;;;;;;9.83;76.99;100539.56;5132650;27;20095;-80
2023/10/13 01:14:04;;;;;;;21.30;12.15;;;;;;;9.70;77.22;100531.53;5134295;27;20479;-80
2023/10/13 01:16:30;;;;;;;20.55;11.85;;;;;;;10.23;75.75;100560.91;5150538;27;20514;-86
2023/10/13 01:18:59;;;;;;;24.20;13.85;;;;;;;9.87;77.17;100562.13;5134488;27;20027;-80
2023/10/13 01:21:27;;;;;;;19.67;10.77;;;;;;;9.24;78.62;100538.38;5134412;27;20043;-80
2023/10/13 01:23:53;;;;;;;19.35;9.13;;;;;;;8.85;77.95;100559.25;5133708;27;20520;-81
2023/10/13 01:26:26;;;;;;;16.75;8.93;;;;;;;8.36;79.23;100530.84;5135757;27;20031;-79
2023/10/13 01:28:56;;;;;;;20.00;9.32;;;;;;;8.35;79.31;100555.78;5136166;27;20026;-81
2023/10/13 01:31:26;;;;;;;16.55;9.85;;;;;;;8.18;80.32;100535.81;5121356;27;20027;-80
2023/10/13 01:33:58;;;;;;;16.80;10.15;;;;;;;8.02;80.30;100568.78;5133038;27;20461;-80
2023/10/13 01:36:26;;;;;;;16.00;9.20;;;;;;;7.89;82.61;100564.16;5137299;27;20102;-80
2023/10/13 01:38:52;;;;;;;15.30;8.48;;;;;;;7.99;82.93;100559.34;5133368;27;20176;-81
2023/10/13 01:41:19;;;;;;;16.15;9.77;;;;;;;7.74;84.36;100566.84;5143507;27;20035;-80
2023/10/13 01:43:44;;;;;;;15.23;9.15;;;;;;;7.65;83.40;100522.84;5132613;27;20517;-80
2023/10/13 01:46:13;;;;;;;18.92;8.27;;;;;;;7.92;80.56;100505.34;5143142;27;20523;-79
2023/10/13 01:48:40;;;;;;;;;;;;;;;8.64;78.16;100553.97;5136280;27;20050;-81
2023/10/13 01:51:09;;;;;;;12.52;7.68;;;;;;;8.24;78.53;100525.25;5131998;27;19915;-83
2023/10/13 01:53:36;;;;;;;12.77;7.93;;;;;;;8.60;76.77;100520.81;5132529;27;20535;-79
2023/10/13 01:56:09;;;;;;;19.63;9.27;;;;;;;8.96;76.48;100549.06;5139296;27;20033;-81
2023/10/13 01:58:35;;;;;;;18.30;8.52;;;;;;;8.58;77.82;100514.88;5150354;27;20030;-80
2023/10/13 02:01:07;;;;;;;20.08;8.82;;;;;;;8.30;78.54;100497.09;5148084;27;20049;-80
2023/10/13 02:03:32;;;;;;;18.17;9.70;;;;;;;8.24;79.14;100527.06;5131571;27;20035;-83
2023/10/13 02:06:04;;;;;;;15.77;9.25;;;;;;;8.28;78.20;100499.09;5132061;27;20023;-79
2023/10/13 02:08:30;;;;;;;15.65;10.05;;;;;;;8.88;76.04;100522.63;5131321;27;20123;-82
2023/10/13 02:10:56;;;;;;;22.50;10.85;;;;;;;8.81;75.32;100504.78;5143164;27;20142;-79
2023/10/13 02:13:24;;;;;;;19.70;10.00;;;;;;;8.47;77.21;100507.44;5151142;27;20029;-80
2023/10/13 02:15:56;;;;;;;17.25;10.73;;;;;;;8.26;79.59;100530.38;5147958;27;20356;-80
2023/10/13 02:18:26;;;;;;;19.02;10.60;;;;;;;7.73;82.67;100511.31;5131632;27;20030;-79
2023/10/13 02:20:56;;;;;;;22.23;11.18;;;;;;;8.15;80.53;100525.56;5145266;27;20491;-85
2023/10/13 02:23:29;;;;;;;20.73;12.15;;;;;;;8.51;81.87;100532.63;5150414;27;20479;-80
2023/10/13 02:26:02;;;;;;;19.30;12.05;;;;;;;8.83;79.74;100540.00;5132349;27;20023;-80
2023/10/13 02:28:33;;;;;;;22.67;13.30;;;;;;;9.30;77.91;100523.44;5131782;27;20026;-80
2023/10/13 02:31:03;;;;;;;23.92;13.70;;;;;;;9.18;78.75;100537.31;5146295;27;20546;-81
2023/10/13 02:33:31;;;;;;;22.80;13.25;;;;;;;8.78;79.98;100499.84;5151488;27;20567;-82
2023/10/13 02:36:03;;;;;;;;;;;;;;;8.91;80.40;100540.84;5131481;27;20099;-81
2023/10/13 02:38:47;;;;;;;20.02;12.48;;;;;;;8.71;80.64;100533.56;5135882;27;20010;-81
2023/10/13 02:41:27;;;;;;;21.02;11.57;;;;;;;8.87;79.21;100528.94;5141941;27;20030;-80
2023/10/13 02:43:53;;;;;;;25.85;11.82;;;;;;;9.08;77.89;100536.03;5114462;27;20026;-80
2023/10/13 02:46:23;;;;;;;22.10;12.80;;;;;;;8.97;78.84;100534.72;5135402;27;20418;-81
2023/10/13 02:48:57;;;;;;;23.25;13.50;;;;;;;8.53;82.27;100530.59;5143381;27;20404;-81
2023/10/13 02:51:35;;;;;;;24.73;12.65;;;;;;;8.82;80.65;100522.38;5130917;27;20031;-82
2023/10/13 02:54:19;;;;;;;23.13;13.07;;;;;;;8.63;80.78;100512.47;5114116;27;20035;-79
2023/10/13 02:56:57;;;;;;;20.73;12.18;;;;;;;8.78;79.69;100515.81;5135600;27;20043;-80
2023/10/13 03:02:28;;;;;;;;;;;;;;;8.78;80.73;100523.78;5132367;27;20046;-79
2023/10/13 03:05:09;;;;;;;18.50;11.43;;;;;;;8.19;82.77;100494.94;5131394;27;19957;-80
2023/10/13 03:07:36;;;;;;;19.85;12.50;;;;;;;7.99;84.48;100531.97;5143692;27;20618;-80
2023/10/13 03:10:12;;;;;;;19.23;12.07;;;;;;;7.75;85.18;100530.53;5136324;27;20031;-82
2023/10/13 03:12:39;;;;;;;21.15;11.82;;;;;;;7.37;83.57;100490.91;5133062;27;20046;-80
2023/10/13 03:17:43;;;;;;;27.30;14.68;;;;;;;8.74;79.25;100525.19;5146760;27;20038;-80
2023/10/13 03:20:13;;;;;;;23.67;12.77;;;;;;;8.50;80.42;100512.34;5136051;27;20037;-79
2023/10/13 03:22:39;;;;;;;22.02;13.23;;;;;;;8.19;82.45;100521.50;5127696;27;20038;-80
2023/10/13 03:25:06;;;;;;;21.70;13.52;;;;;;;8.47;81.23;100513.56;5140433;27;20027;-80
2023/10/13 03:30:47;;;;;;;23.27;13.85;;;;;;;7.67;83.67;100522.66;5125071;27;20035;-80
2023/10/13 03:33:13;;;;;;;20.35;13.10;;;;;;;7.85;83.43;100515.09;5123930;28;20551;-80
2023/10/13 03:36:05;;;;;;;22.73;12.73;;;;;;;8.56;79.75;100527.53;5136553;28;20026;-81
2023/10/13 03:38:27;;;;;;;24.58;14.10;;;;;;;8.50;79.77;100512.34;5140162;27;20043;-81
2023/10/13 03:44:08;;;;;;;20.85;12.65;;;;;;;8.31;81.57;100514.66;5126364;28;20559;-80
2023/10/13 03:46:36;;;;;;;20.52;12.77;;;;;;;7.78;84.43;100519.50;5158757;27;20511;-79
2023/10/13 03:49:04;;;;;;;22.07;13.20;;;;;;;7.79;83.70;100502.56;5143785;27;20043;-84
2023/10/13 03:51:33;;;;;;;22.60;12.40;;;;;;;8.34;81.81;100522.25;5143497;27;20184;-85
2023/10/13 03:53:58;;;;;;;27.73;12.88;;;;;;;8.31;81.52;100496.06;5141660;27;20027;-81
2023/10/13 03:56:28;;;;;;;20.63;11.85;;;;;;;8.38;80.80;100525.34;5140280;27;20108;-81
2023/10/13 03:59:00;;;;;;;18.90;12.15;;;;;;;8.39;81.07;100517.16;5142128;27;20035;-82
2023/10/13 04:01:34;;;;;;;22.75;13.25;;;;;;;8.15;81.54;100499.00;5143814;27;20023;-84
2023/10/13 04:04:11;;;;;;;23.55;11.57;;;;;;;7.43;85.78;100490.97;5144650;27;20449;-80
2023/10/13 04:17:14;;;;;;;24.95;13.82;;;;;;;7.91;83.20;100486.97;5111500;28;20024;-80
2023/10/13 04:23:11;;;;;;;23.63;13.52;;;;;;;7.63;85.11;100507.09;5135125;27;20035;-79
2023/10/13 04:28:34;;;;;;;28.27;15.38;;;;;;;7.93;82.37;100533.56;5147245;27;20172;-84
2023/10/13 04:36:14;;;;;;;25.88;13.63;;;;;;;7.82;82.53;100531.38;5134401;27;20031;-80
2023/10/13 04:41:39;;;;;;;28.08;12.52;;;;;;;8.36;81.30;100552.13;5151777;27;20035;-80
2023/10/13 04:49:28;;;;;;;23.52;10.95;;;;;;;8.44;80.74;100538.72;5133711;27;20591;-79
2023/10/13 04:54:45;;;;;;;15.15;8.75;;;;;;;8.31;81.93;100559.81;5113212;28;20043;-84
2023/10/13 05:05:30;;;;;;;25.65;8.88;;;;;;;7.90;86.43;100559.66;5134219;27;20035;-81
2023/10/13 05:51:47;;;;;;;17.65;10.15;;;;;;;9.36;84.43;100570.56;5135019;27;20019;-83
2023/10/13 06:29:37;;;;;;;14.05;7.20;;;;;;;12.03;73.57;100596.00;5122170;27;20033;-83
2023/10/13 06:32:10;;;;;;;16.65;7.75;;;;;;;11.90;74.90;100565.88;5139491;27;20019;-81
2023/10/13 06:34:45;;;;;;;16.48;8.65;;;;;;;12.01;74.63;100595.41;5149455;27;20062;-81
2023/10/13 06:37:29;;;;;;;11.18;7.55;;;;;;;12.14;74.74;100599.84;5132102;27;20057;-80
2023/10/13 06:40:25;;;;;;;13.80;7.68;;;;;;;12.42;73.93;100612.81;5135739;27;20101;-80
2023/10/13 06:43:03;;;;;;;13.98;7.82;;;;;;;12.64;73.43;100604.38;5150259;27;20023;-81
2023/10/13 06:45:35;;;;;;;12.32;7.10;;;;;;;13.07;70.90;100587.50;5151018;27;20106;-82
2023/10/13 06:48:01;;;;;;;12.98;7.28;;;;;;;13.24;70.63;100609.16;5146110;27;20054;-82
2023/10/13 06:50:28;;;;;;;17.95;7.35;;;;;;;13.43;70.38;100591.25;5137329;27;20082;-86
2023/10/13 06:52:54;;;;;;;13.93;8.02;;;;;;;13.83;67.20;100593.41;5151635;27;20026;-81
2023/10/13 06:55:27;;;;;;;15.55;8.32;;;;;;;13.92;66.67;100589.38;5135012;27;20083;-81
2023/10/13 06:57:59;;;;;;;12.00;7.60;;;;;;;14.13;65.80;100595.25;5130344;27;20033;-82
2023/10/13 07:00:34;;;;;;;13.95;7.00;;;;;;;14.31;64.94;100608.59;5136990;27;20019;-81
2023/10/13 07:03:08;;;;;;;15.95;8.00;;;;;;;14.51;64.19;100607.47;5150134;27;20491;-80
2023/10/13 07:05:38;;;;;;;18.85;7.82;;;;;;;14.43;63.36;100612.13;5139016;27;20109;-81
2023/10/13 07:08:08;;;;;;;19.02;9.60;;;;;;;14.40;64.84;100604.53;5131257;27;20051;-80
2023/10/13 07:10:51;;;;;;;19.98;7.60;;;;;;;14.55;63.10;100608.66;5131626;27;20030;-82
2023/10/13 07:13:19;;;;;;;13.52;6.70;;;;;;;14.70;63.38;100606.34;5130076;27;20027;-82
2023/10/13 07:15:45;;;;;;;18.20;9.00;;;;;;;14.68;63.55;100597.72;5137595;27;20521;-83
2023/10/13 07:18:22;;;;;;;11.75;6.75;;;;;;;14.70;63.74;100584.06;5131903;27;20495;-82
2023/10/13 07:20:48;;;;;;;12.70;6.90;;;;;;;15.14;61.67;100606.81;5137273;27;20460;-81
2023/10/13 07:23:17;;;;;;;11.40;6.38;;;;;;;15.29;60.85;100606.31;5137873;27;20035;-82
2023/10/13 07:25:56;;;;;;;11.73;6.72;;;;;;;15.51;60.26;100621.78;5142048;27;20026;-82
2023/10/13 07:28:22;;;;;;;16.33;7.13;;;;;;;15.85;58.61;100596.69;5151030;27;20119;-81
2023/10/13 07:33:21;;;;;;;12.90;6.30;;;;;;;15.82;60.74;100604.44;5138832;27;20038;-85
2023/10/13 07:35:51;;;;;;;12.77;7.18;;;;;;;16.04;58.89;100605.38;5140779;27;20035;-82
2023/10/13 07:38:21;;;;;;;18.58;6.85;;;;;;;16.29;57.53;100598.00;5131354;27;20039;-82
2023/10/13 07:40:52;;;;;;;21.92;6.10;;;;;;;16.36;58.35;100596.75;5134199;27;20042;-82
2023/10/13 07:43:21;;;;;;;17.13;5.90;;;;;;;16.77;57.38;100613.53;5151533;27;20031;-83
2023/10/13 07:45:58;;;;;;;14.32;6.40;;;;;;;16.99;55.19;100604.75;5138490;27;20028;-85
2023/10/13 07:48:25;;;;;;;26.35;6.57;;;;;;;16.99;56.20;100613.63;5131050;27;20039;-81
2023/10/13 07:51:16;;;;;;;18.47;6.40;;;;;;;17.11;56.35;100597.38;5137844;27;20019;-85
2023/10/13 07:53:48;;;;;;;17.33;7.18;;;;;;;17.42;54.59;100630.09;5141315;27;20023;-82
2023/10/13 07:56:18;;;;;;;19.38;5.55;;;;;;;17.77;53.48;100610.81;5134357;27;20084;-83
2023/10/13 07:58:52;;;;;;;13.75;5.82;;;;;;;17.68;53.44;100604.25;5117742;27;20023;-83
2023/10/13 08:01:24;;;;;;;20.33;6.40;;;;;;;18.05;52.87;100607.09;5135367;27;20062;-83
2023/10/13 08:04:04;;;;;;;13.05;5.82;;;;;;;18.04;52.75;100594.69;5138720;27;20023;-83
2023/10/13 08:06:30;;;;;;;9.82;5.20;;;;;;;18.41;51.96;100620.94;5138684;27;20027;-85
2023/10/13 08:09:06;;;;;;;10.73;6.28;;;;;;;18.59;50.69;100594.56;5134919;27;20031;-84
2023/10/13 08:11:34;;;;;;;9.45;5.75;;;;;;;18.95;49.01;100611.06;5139458;27;20030;-82
2023/10/13 08:14:11;;;;;;;9.05;4.97;;;;;;;19.17;48.80;100622.53;5140995;27;20031;-82
2023/10/13 08:19:27;;;;;;;10.88;5.22;;;;;;;19.42;48.96;100607.50;5135302;27;20027;-81
2023/10/13 08:22:23;;;;;;;15.73;7.95;;;;;;;19.42;49.08;100602.91;5135418;27;20258;-86
2023/10/13 09:06:57;;;;;;;7.70;4.43;;;;;;;22.24;41.49;100544.63;5133795;27;20027;-83
2023/10/13 09:12:17;;;;;;;7.72;4.20;;;;;;;22.84;38.76;100564.16;5119546;27;20038;-83
2023/10/13 09:14:56;;;;;;;9.70;4.25;;;;;;;22.92;39.52;100564.59;5134093;27;20035;-81
2023/10/13 09:17:35;;;;;;;11.07;4.35;;;;;;;23.02;38.89;100564.53;5147840;27;20419;-80
2023/10/13 09:25:34;;;;;;;10.35;4.60;;;;;;;22.95;41.01;100542.28;5140654;27;20039;-82
2023/10/13 09:28:00;;;;;;;20.23;10.60;;;;;;;23.18;39.61;100551.53;5134454;27;20102;-82
2023/10/13 09:30:31;;;;;;;7.50;4.60;;;;;;;23.65;37.77;100550.63;5132635;27;20023;-83
2023/10/13 09:33:04;;;;;;;9.07;4.13;;;;;;;23.81;36.10;100562.13;5144289;27;20031;-84
2023/10/13 09:35:33;;;;;;;8.10;4.40;;;;;;;23.51;37.50;100527.97;5136719;27;20536;-81
2023/10/13 09:38:02;;;;;;;11.20;4.32;;;;;;;23.63;38.39;100566.44;5138354;27;20039;-81
2023/10/13 09:40:37;;;;;;;7.93;3.78;;;;;;;23.50;37.57;100548.13;5133332;27;20037;-82
2023/10/13 09:43:14;;;;;;;8.70;4.00;;;;;;;23.96;36.79;100552.09;5134574;27;20033;-82
2023/10/13 09:45:56;;;;;;;11.43;5.60;;;;;;;24.08;37.23;100557.91;5135337;27;20095;-82
2023/10/13 09:48:32;;;;;;;10.50;4.03;;;;;;;24.31;35.95;100561.59;5140688;27;20546;-81
2023/10/13 09:51:02;;;;;;;8.25;4.10;;;;;;;23.91;36.04;100553.00;5153623;27;20519;-82
2023/10/13 09:53:30;;;;;;;8.80;4.20;;;;;;;24.25;36.66;100536.38;5150548;27;20026;-82
2023/10/13 09:56:23;;;;;;;;;;;;;;;24.59;35.16;100545.34;5155112;27;20038;-82
2023/10/13 09:59:00;;;;;;;8.88;4.03;;;;;;;24.30;36.92;100527.28;5154376;27;20014;-83
2023/10/13 10:01:31;;;;;;;8.10;3.80;;;;;;;24.10;35.70;100516.75;5144328;27;20058;-81
2023/10/13 10:04:08;;;;;;;9.25;3.67;;;;;;;24.02;36.24;100516.31;5131944;27;20411;-82
2023/10/13 10:06:43;;;;;;;6.22;3.80;;;;;;;24.39;36.44;100509.13;5136109;27;20031;-81
2023/10/13 10:09:12;;;;;;;11.23;4.05;;;;;;;24.68;36.27;100527.16;5133199;27;20080;-81
2023/10/13 10:11:50;;;;;;;13.88;3.97;;;;;;;24.98;36.30;100525.75;5130990;27;20039;-83
2023/10/13 10:14:36;;;;;;;;;;;;;;;24.93;35.88;100517.69;5132183;27;20024;-82
2023/10/13 10:17:02;;;;;;;10.20;4.93;;;;;;;24.99;38.58;100515.66;5147107;27;19911;-81
2023/10/13 10:19:28;;;;;;;8.80;3.88;;;;;;;25.46;33.67;100510.84;5143834;27;20563;-82
2023/10/13 10:22:16;;;;;;;8.10;3.90;;;;;;;25.58;33.96;100505.63;5133084;27;20028;-84
2023/10/13 10:24:43;;;;;;;6.97;4.05;;;;;;;25.68;33.35;100485.44;5151931;27;20023;-85
2023/10/13 10:27:14;;;;;;;7.60;4.40;;;;;;;25.80;34.76;100488.44;5152435;27;20027;-82
2023/10/13 10:29:55;;;;;;;10.60;4.05;;;;;;;25.49;34.76;100496.56;5112559;28;20553;-83
2023/10/13 10:32:21;;;;;;;5.60;4.03;;;;;;;25.89;32.90;100495.88;5112611;28;20028;-84
2023/10/13 10:34:47;;;;;;;9.75;4.10;;;;;;;25.71;33.48;100508.63;5122239;27;20104;-83
2023/10/13 10:37:13;;;;;;;8.23;4.40;;;;;;;25.67;32.75;100481.13;5131468;27;20054;-81
2023/10/13 10:39:49;;;;;;;7.10;3.85;;;;;;;26.21;31.68;100489.34;5132710;27;20395;-81
2023/10/13 10:42:15;;;;;;;8.40;4.10;;;;;;;26.36;31.48;100458.88;5130114;27;20059;-82
2023/10/13 10:44:44;;;;;;;7.65;3.92;;;;;;;26.76;30.43;100461.59;5145353;27;20548;-81
2023/10/13 10:47:32;;;;;;;8.98;4.07;;;;;;;27.04;29.85;100467.63;5150156;27;20030;-84
2023/10/13 10:50:07;;;;;;;7.55;3.83;;;;;;;27.14;30.07;100480.19;5111363;28;20049;-86
2023/10/13 10:52:39;;;;;;;8.30;3.97;;;;;;;27.23;30.44;100475.53;5125184;27;20043;-82
2023/10/13 10:55:09;;;;;;;7.57;4.13;;;;;;;27.24;30.96;100471.69;5150499;27;20031;-83
2023/10/13 10:57:37;;;;;;;8.48;3.55;;;;;;;27.53;31.99;100445.59;5153400;27;20110;-86
2023/10/13 11:00:15;;;;;;;9.30;4.25;;;;;;;27.96;30.56;100463.13;5131803;27;20056;-83
2023/10/13 11:02:40;;;;;;;8.38;4.35;;;;;;;27.63;31.78;100453.47;5131968;27;20094;-81
2023/10/13 11:05:09;;;;;;;7.45;3.92;;;;;;;27.31;29.54;100432.06;5145109;27;20125;-82
2023/10/13 11:07:35;;;;;;;7.30;4.20;;;;;;;27.93;29.18;100461.84;5148634;27;20022;-82
2023/10/13 11:10:27;;;;;;;8.02;4.13;;;;;;;28.14;28.93;100461.13;5143248;27;20079;-83
2023/10/13 11:13:13;;;;;;;7.95;3.83;;;;;;;28.44;28.07;100462.78;5131514;27;20062;-82
2023/10/13 11:15:45;;;;;;;15.50;4.50;;;;;;;28.56;27.39;100461.31;5130390;27;20050;-83
2023/10/13 11:18:20;;;;;;;8.90;4.30;;;;;;;28.79;28.32;100450.84;5134538;27;20023;-82
2023/10/13 11:20:49;;;;;;;7.15;4.55;;;;;;;28.96;26.65;100463.66;5130145;27;20024;-82
2023/10/13 11:23:15;;;;;;;10.68;4.85;;;;;;;29.03;26.98;100444.69;5130465;27;20480;-82
2023/10/13 11:25:44;;;;;;;8.90;4.28;;;;;;;29.33;29.14;100448.22;5147052;27;20110;-82
2023/10/13 11:28:17;;;;;;;17.50;7.45;;;;;;;29.11;26.46;100441.13;5125859;27;20023;-83
2023/10/13 11:30:49;;;;;;;24.70;15.95;;;;;;;29.29;26.03;100435.50;5111226;28;20024;-83
2023/10/13 11:33:18;;;;;;;17.35;10.10;;;;;;;29.56;26.55;100439.59;5110534;28;20487;-82
2023/10/13 11:38:28;;;;;;;15.30;8.52;;;;;;;29.93;26.97;100437.78;5138104;27;20031;-83
2023/10/13 11:41:14;;;;;;;9.68;4.75;;;;;;;30.04;26.86;100407.91;5133257;27;20558;-81
2023/10/13 11:48:38;;;;;;;12.93;7.00;;;;;;;30.02;26.18;100413.75;5150724;27;20055;-83
2023/10/13 11:51:08;;;;;;;11.82;6.38;;;;;;;30.31;25.24;100392.69;5130516;28;20023;-81
2023/10/13 11:53:38;;;;;;;14.48;6.70;;;;;;;29.63;26.86;100412.38;5132190;27;20109;-82
2023/10/13 11:56:10;;;;;;;11.25;5.20;;;;;;;29.19;25.41;100431.22;5135604;27;20027;-82
2023/10/13 11:58:39;;;;;;;8.90;4.15;;;;;;;28.54;26.40;100404.00;5144294;27;20042;-82
2023/10/13 12:12:00;;;;;;;11.25;6.32;;;;;;;27.90;27.81;100393.16;5135142;27;20034;-85
2023/10/13 12:14:31;;;;;;;10.70;5.97;;;;;;;28.41;26.08;100411.31;5148783;27;20034;-87
2023/10/13 12:17:03;;;;;;;10.02;5.28;;;;;;;29.33;25.98;100398.78;5130596;27;20075;-83
2023/10/13 12:19:31;;;;;;;10.98;5.60;;;;;;;29.67;24.38;100412.50;5134731;27;20110;-82
2023/10/13 12:22:03;;;;;;;13.48;6.82;;;;;;;30.00;23.91;100420.75;5130188;28;20019;-84
2023/10/13 12:24:53;;;;;;;15.40;6.90;;;;;;;29.99;23.55;100408.91;5131050;27;20069;-82
2023/10/13 12:27:19;;;;;;;11.13;6.82;;;;;;;29.37;24.83;100407.16;5130591;27;20083;-82
2023/10/13 12:29:48;;;;;;;15.40;7.10;;;;;;;28.68;25.30;100373.59;5131660;27;20034;-82
2023/10/13 12:32:14;;;;;;;16.02;6.88;;;;;;;28.58;26.58;100415.13;5146476;27;20034;-82
2023/10/13 12:53:55;;;;;;;7.85;3.92;;;;;;;28.18;27.51;100410.78;5147051;27;20035;-82
2023/10/13 12:56:25;;;;;;;8.27;4.25;;;;;;;29.23;24.98;100389.00;5143097;27;20031;-82
2023/10/13 12:58:54;;;;;;;9.68;4.00;;;;;;;30.26;24.20;100403.94;5139165;27;20033;-83
2023/10/13 13:01:21;;;;;;;7.05;3.60;;;;;;;30.39;23.54;100405.53;5154048;27;20035;-81
2023/10/13 13:03:50;;;;;;;7.78;3.60;;;;;;;30.99;23.33;100400.28;5148219;27;21221;-82
2023/10/13 13:06:25;;;;;;;7.53;3.53;;;;;;;30.33;23.94;100395.91;5134738;27;20027;-81
2023/10/13 13:08:55;;;;;;;5.82;3.33;;;;;;;30.78;25.00;100389.44;5137313;27;20062;-82
2023/10/13 13:11:20;;;;;;;7.03;3.40;;;;;;;31.73;22.86;100405.53;5140473;27;20091;-82
2023/10/13 13:13:46;;;;;;;6.95;3.30;;;;;;;31.71;21.91;100391.28;5134788;27;20039;-83
2023/10/13 13:16:23;;;;;;;8.15;3.20;;;;;;;30.86;22.54;100406.97;5138408;27;20025;-80
2023/10/13 13:18:50;;;;;;;8.85;3.58;;;;;;;31.59;21.72;100408.69;5154167;27;20027;-82
2023/10/13 13:21:21;;;;;;;7.93;3.47;;;;;;;31.40;22.47;100389.22;5143931;27;20038;-82
2023/10/13 13:23:47;;;;;;;12.55;7.95;;;;;;;31.56;21.99;100401.13;5132421;27;20034;-83
2023/10/13 13:26:15;;;;;;;7.50;3.88;;;;;;;32.00;21.39;100389.28;5137048;27;20015;-82
2023/10/13 13:28:50;;;;;;;8.23;3.13;;;;;;;33.02;21.11;100402.25;5144703;27;20031;-83
2023/10/13 13:31:25;;;;;;;6.80;3.53;;;;;;;33.13;20.86;100406.06;5132597;27;20023;-84
2023/10/13 13:33:50;;;;;;;6.63;2.70;;;;;;;32.76;20.23;100389.06;5131967;27;20038;-83
2023/10/13 13:36:18;;;;;;;10.70;6.10;;;;;;;33.25;20.43;100387.72;5137338;27;20080;-85
2023/10/13 13:38:48;;;;;;;4.32;2.33;;;;;;;33.79;19.42;100398.63;5134045;27;20027;-87
2023/10/13 13:41:20;;;;;;;5.75;2.60;;;;;;;34.13;19.24;100398.00;5137973;27;20065;-84
2023/10/13 13:46:16;;;;;;;5.28;2.90;;;;;;;34.77;18.05;100389.88;5131321;27;20589;-81
2023/10/13 13:48:42;;;;;;;5.55;3.03;;;;;;;34.79;18.49;100396.63;5128737;27;20067;-83
2023/10/13 13:51:14;;;;;;;6.80;2.50;;;;;;;34.41;18.43;100409.53;5136051;27;20064;-87
2023/10/13 13:53:48;;;;;;;7.85;2.40;;;;;;;35.00;17.67;100395.31;5129636;27;20019;-83
2023/10/13 13:56:18;;;;;;;5.28;2.35;;;;;;;35.49;17.17;100383.22;5132139;27;20023;-81
2023/10/13 13:58:45;;;;;;;5.93;2.72;;;;;;;36.07;17.46;100397.63;5132338;27;20038;-84
2023/10/13 14:01:21;;;;;;;9.55;3.55;;;;;;;35.34;18.11;100365.63;5137091;27;20492;-82
2023/10/13 14:03:51;;;;;;;7.63;2.80;;;;;;;36.38;17.14;100388.72;5131378;27;20410;-83
2023/10/13 14:06:26;;;;;;;7.05;3.17;;;;;;;37.56;16.07;100394.00;5132994;27;20099;-84
2023/10/13 14:08:56;;;;;;;9.30;4.40;;;;;;;37.06;16.12;100404.19;5147515;27;20103;-83
2023/10/13 14:14:14;;;;;;;11.63;3.20;;;;;;;31.46;21.10;100390.59;5131498;27;20052;-82
2023/10/13 14:16:49;;;;;;;7.28;3.85;;;;;;;30.85;22.39;100391.56;5116714;27;20405;-81
2023/10/13 14:19:26;;;;;;;7.35;4.18;;;;;;;30.32;23.17;100380.56;5136402;27;20015;-82
2023/10/13 14:21:55;;;;;;;16.30;5.40;;;;;;;29.48;24.42;100353.38;5142841;27;20050;-83
2023/10/13 14:24:27;;;;;;;21.83;7.35;;;;;;;29.13;24.03;100372.13;5131837;27;20059;-84
2023/10/13 14:27:09;;;;;;;15.23;7.20;;;;;;;28.67;24.80;100361.00;5130279;27;20625;-80
2023/10/13 14:29:42;;;;;;;15.13;8.15;;;;;;;28.86;25.91;100368.78;5137732;27;20026;-81
2023/10/13 14:32:12;;;;;;;24.92;8.85;;;;;;;29.56;24.61;100351.66;5141398;27;20099;-81
2023/10/13 14:34:42;;;;;;;12.90;8.75;;;;;;;30.51;23.21;100349.69;5133229;27;20035;-81
2023/10/13 14:37:12;;;;;;;14.75;10.00;;;;;;;32.33;21.67;100377.06;5145307;27;20062;-82
2023/10/13 14:39:38;;;;;;;17.60;12.10;;;;;;;33.78;19.86;100358.31;5140038;27;20026;-84
2023/10/13 14:42:05;;;;;;;18.55;11.98;;;;;;;34.01;19.67;100385.94;5142893;27;20038;-81
2023/10/13 14:44:34;;;;;;;21.88;12.18;;;;;;;33.66;20.36;100368.75;5131063;27;20475;-81
2023/10/13 14:47:05;;;;;;;11.73;8.88;;;;;;;33.52;20.00;100383.09;5135322;27;20030;-83
2023/10/13 14:49:38;;;;;;;16.25;10.95;;;;;;;32.77;20.85;100380.41;5135876;27;20106;-80
2023/10/13 14:52:04;;;;;;;18.00;8.55;;;;;;;31.08;22.53;100386.41;5140914;27;20403;-81
2023/10/13 14:54:32;;;;;;;17.08;8.73;;;;;;;30.15;23.66;100380.75;5145792;27;20034;-80
2023/10/13 14:57:01;;;;;;;14.93;8.43;;;;;;;29.39;25.19;100380.13;5133582;27;20042;-84
2023/10/13 14:59:27;;;;;;;17.20;9.70;;;;;;;29.01;25.63;100383.81;5131807;27;20581;-83
2023/10/13 15:01:55;;;;;;;14.32;7.55;;;;;;;28.47;25.82;100356.28;5132723;27;20031;-83
2023/10/13 15:04:24;;;;;;;11.25;5.95;;;;;;;28.03;26.56;100351.84;5130390;27;20023;-83
2023/10/13 15:06:50;;;;;;;13.85;5.22;;;;;;;27.78;27.13;100337.06;5130516;27;20031;-83
2023/10/13 15:09:23;;;;;;;14.15;4.68;;;;;;;27.50;27.45;100344.06;5132106;27;20087;-84
2023/10/13 15:11:54;;;;;;;10.00;5.28;;;;;;;27.19;27.97;100354.09;5150115;27;20450;-83
2023/10/13 15:14:20;;;;;;;14.90;4.72;;;;;;;26.52;28.90;100357.25;5130920;27;20035;-86
2023/10/13 15:16:46;;;;;;;10.25;4.93;;;;;;;26.54;29.16;100365.94;5132518;27;20042;-85
2023/10/13 15:19:12;;;;;;;13.13;5.35;;;;;;;26.24;29.79;100366.53;5135483;27;20150;-83
2023/10/13 15:21:39;;;;;;;10.23;6.43;;;;;;;26.01;29.60;100346.69;5150375;27;20038;-82
2023/10/13 15:24:15;;;;;;;;;;;;;;;25.98;29.91;100369.16;5131196;27;20476;-82
2023/10/13 15:27:23;;;;;;;9.20;5.68;;;;;;;25.85;29.90;100346.25;5131428;27;19933;-82
2023/10/13 15:29:38;;;;;;;12.40;6.07;;;;;;;25.80;30.32;100368.22;5125736;27;20035;-83
2023/10/13 15:32:41;;;;;;;10.38;6.13;;;;;;;25.61;30.62;100365.72;5130198;27;20058;-86
2023/10/13 15:34:50;;;;;;;14.40;6.97;;;;;;;25.45;30.79;100345.38;5131138;27;20091;-82